sensor_id;sensor_type;location;lat;lon;timestamp;pressure;altitude;pressure_sealevel;temperature;humidity
79221;BME280;72175;52.118;5.406;2023-11-21T00:02:12;101141.22;;;14.16;65.52
79221;BME280;72175;52.118;5.406;2023-11-21T00:04:39;101144.84;;;14.15;65.70
79221;BME280;72175;52.118;5.406;2023-11-21T00:07:06;101146.69;;;14.15;65.94
79221;BME280;72175;52.118;5.406;2023-11-21T00:09:33;101146.69;;;14.15;65.76
79221;BME280;72175;52.118;5.406;2023-11-21T00:11:59;101143.19;;;14.14;65.76
79221;BME280;72175;52.118;5.406;2023-11-21T00:14:26;101149.34;;;14.15;65.81
79221;BME280;72175;52.118;5.406;2023-11-21T00:16:53;101150.19;;;14.15;65.96
79221;BME280;72175;52.118;5.406;2023-11-21T00:19:20;101148.50;;;14.14;65.71
79221;BME280;72175;52.118;5.406;2023-11-21T00:21:46;101147.66;;;14.14;65.72
79221;BME280;72175;52.118;5.406;2023-11-21T00:24:13;101154.81;;;14.13;65.66
79221;BME280;72175;52.118;5.406;2023-11-21T00:26:40;101153.00;;;14.14;65.71
79221;BME280;72175;52.118;5.406;2023-11-21T00:29:06;101154.66;;;14.15;65.71
79221;BME280;72175;52.118;5.406;2023-11-21T00:31:52;101160.97;;;14.14;65.22
79221;BME280;72175;52.118;5.406;2023-11-21T00:34:19;101160.13;;;14.13;65.71
79221;BME280;72175;52.118;5.406;2023-11-21T00:36:46;101158.50;;;14.12;65.55
79221;BME280;72175;52.118;5.406;2023-11-21T00:39:13;101160.13;;;14.13;65.56
79221;BME280;72175;52.118;5.406;2023-11-21T00:41:40;101159.31;;;14.13;65.69
79221;BME280;72175;52.118;5.406;2023-11-21T00:44:10;101167.28;;;14.13;65.37
79221;BME280;72175;52.118;5.406;2023-11-21T00:46:36;101169.16;;;14.12;65.30
79221;BME280;72175;52.118;5.406;2023-11-21T00:49:03;101167.28;;;14.13;65.58
79221;BME280;72175;52.118;5.406;2023-11-21T00:51:32;101166.47;;;14.12;65.60
79221;BME280;72175;52.118;5.406;2023-11-21T00:53:59;101167.28;;;14.13;65.39
79221;BME280;72175;52.118;5.406;2023-11-21T00:56:26;101171.81;;;14.12;65.50
79221;BME280;72175;52.118;5.406;2023-11-21T01:02:10;101184.28;;;14.12;65.44
79221;BME280;72175;52.118;5.406;2023-11-21T01:04:37;101181.63;;;14.12;65.75
79221;BME280;72175;52.118;5.406;2023-11-21T01:07:04;101193.09;;;14.12;65.66
79221;BME280;72175;52.118;5.406;2023-11-21T01:09:34;101190.44;;;14.12;65.24
79221;BME280;72175;52.118;5.406;2023-11-21T01:12:01;101194.91;;;14.12;65.50
79221;BME280;72175;52.118;5.406;2023-11-21T01:14:27;101198.56;;;14.11;65.43
79221;BME280;72175;52.118;5.406;2023-11-21T01:16:54;101203.88;;;14.11;65.49
79221;BME280;72175;52.118;5.406;2023-11-21T01:19:31;101199.41;;;14.11;65.53
79221;BME280;72175;52.118;5.406;2023-11-21T01:21:58;101199.41;;;14.11;65.47
79221;BME280;72175;52.118;5.406;2023-11-21T01:24:24;101197.56;;;14.12;65.17
79221;BME280;72175;52.118;5.406;2023-11-21T01:30:38;101198.56;;;14.11;65.61
79221;BME280;72175;52.118;5.406;2023-11-21T01:33:05;101197.72;;;14.10;65.20
79221;BME280;72175;52.118;5.406;2023-11-21T01:35:32;101201.22;;;14.11;65.55
79221;BME280;72175;52.118;5.406;2023-11-21T01:37:59;101203.06;;;14.10;65.37
79221;BME280;72175;52.118;5.406;2023-11-21T01:40:25;101200.53;;;14.09;65.30
79221;BME280;72175;52.118;5.406;2023-11-21T01:42:53;101206.69;;;14.09;65.30
79221;BME280;72175;52.118;5.406;2023-11-21T01:45:32;101210.19;;;14.10;65.22
79221;BME280;72175;52.118;5.406;2023-11-21T01:48:00;101209.34;;;14.09;65.54
79221;BME280;72175;52.118;5.406;2023-11-21T01:50:32;101213.84;;;14.09;65.45
79221;BME280;72175;52.118;5.406;2023-11-21T01:53:00;101212.84;;;14.10;65.55
79221;BME280;72175;52.118;5.406;2023-11-21T01:55:27;101211.19;;;14.09;65.45
79221;BME280;72175;52.118;5.406;2023-11-21T01:57:56;101219.16;;;14.09;65.39
79221;BME280;72175;52.118;5.406;2023-11-21T02:00:26;101221.81;;;14.09;65.39
79221;BME280;72175;52.118;5.406;2023-11-21T02:02:55;101221.81;;;14.09;65.46
79221;BME280;72175;52.118;5.406;2023-11-21T02:05:23;101216.50;;;14.09;65.22
79221;BME280;72175;52.118;5.406;2023-11-21T02:07:50;101227.16;;;14.09;65.14
79221;BME280;72175;52.118;5.406;2023-11-21T02:10:19;101226.31;;;14.08;65.28
79221;BME280;72175;52.118;5.406;2023-11-21T02:12:50;101239.63;;;14.08;65.21
79221;BME280;72175;52.118;5.406;2023-11-21T02:15:17;101243.13;;;14.09;65.22
79221;BME280;72175;52.118;5.406;2023-11-21T02:17:48;101250.25;;;14.08;65.25
79221;BME280;72175;52.118;5.406;2023-11-21T02:20:19;101245.94;;;14.07;65.12
79221;BME280;72175;52.118;5.406;2023-11-21T02:22:54;101249.44;;;14.08;65.28
79221;BME280;72175;52.118;5.406;2023-11-21T02:25:30;101256.56;;;14.07;65.17
79221;BME280;72175;52.118;5.406;2023-11-21T02:28:12;101253.91;;;14.07;65.15
79221;BME280;72175;52.118;5.406;2023-11-21T02:30:43;101253.91;;;14.07;65.09
79221;BME280;72175;52.118;5.406;2023-11-21T02:33:10;101250.41;;;14.07;65.27
79221;BME280;72175;52.118;5.406;2023-11-21T02:35:37;101256.56;;;14.07;65.03
79221;BME280;72175;52.118;5.406;2023-11-21T02:38:04;101255.72;;;14.07;65.27
79221;BME280;72175;52.118;5.406;2023-11-21T02:40:32;101256.56;;;14.07;65.11
79221;BME280;72175;52.118;5.406;2023-11-21T02:42:59;101257.56;;;14.06;64.99
79221;BME280;72175;52.118;5.406;2023-11-21T02:45:26;101252.22;;;14.06;65.46
79221;BME280;72175;52.118;5.406;2023-11-21T02:47:53;101257.56;;;14.06;65.38
79221;BME280;72175;52.118;5.406;2023-11-21T02:50:20;101260.22;;;14.06;65.33
79221;BME280;72175;52.118;5.406;2023-11-21T02:52:50;101262.88;;;14.06;65.22
79221;BME280;72175;52.118;5.406;2023-11-21T02:55:17;101259.38;;;14.06;65.51
79221;BME280;72175;52.118;5.406;2023-11-21T02:57:44;101251.41;;;14.06;65.06
79221;BME280;72175;52.118;5.406;2023-11-21T03:00:11;101256.72;;;14.06;65.29
79221;BME280;72175;52.118;5.406;2023-11-21T03:02:40;101254.06;;;14.06;65.27
79221;BME280;72175;52.118;5.406;2023-11-21T03:05:07;101260.22;;;14.06;65.22
79221;BME280;72175;52.118;5.406;2023-11-21T03:07:38;101261.19;;;14.05;65.33
79221;BME280;72175;52.118;5.406;2023-11-21T03:10:08;101258.53;;;14.05;64.84
79221;BME280;72175;52.118;5.406;2023-11-21T03:12:56;101259.53;;;14.04;65.10
79221;BME280;72175;52.118;5.406;2023-11-21T03:15:24;101258.53;;;14.05;65.28
79221;BME280;72175;52.118;5.406;2023-11-21T03:17:51;101253.22;;;14.05;64.93
79221;BME280;72175;52.118;5.406;2023-11-21T03:20:17;101249.72;;;14.05;65.28
79221;BME280;72175;52.118;5.406;2023-11-21T03:22:44;101256.88;;;14.04;65.35
79221;BME280;72175;52.118;5.406;2023-11-21T03:25:11;101266.53;;;14.05;64.90
79221;BME280;72175;52.118;5.406;2023-11-21T03:27:38;101256.88;;;14.04;65.20
79221;BME280;72175;52.118;5.406;2023-11-21T03:30:08;101261.34;;;14.04;65.24
79221;BME280;72175;52.118;5.406;2023-11-21T03:32:35;101262.19;;;14.04;65.41
79221;BME280;72175;52.118;5.406;2023-11-21T03:35:02;101264.84;;;14.04;65.11
79221;BME280;72175;52.118;5.406;2023-11-21T03:37:30;101263.03;;;14.05;65.20
79221;BME280;72175;52.118;5.406;2023-11-21T03:39:57;101270.16;;;14.04;65.37
79221;BME280;72175;52.118;5.406;2023-11-21T03:42:24;101267.50;;;14.04;65.31
79221;BME280;72175;52.118;5.406;2023-11-21T03:44:53;101269.19;;;14.05;64.88
79221;BME280;72175;52.118;5.406;2023-11-21T03:47:20;101271.00;;;14.05;64.96
79221;BME280;72175;52.118;5.406;2023-11-21T03:49:47;101270.16;;;14.04;65.40
79221;BME280;72175;52.118;5.406;2023-11-21T03:52:14;101278.16;;;14.04;65.19
79221;BME280;72175;52.118;5.406;2023-11-21T03:54:41;101280.81;;;14.04;65.37
79221;BME280;72175;52.118;5.406;2023-11-21T03:57:08;101275.50;;;14.04;65.40
79221;BME280;72175;52.118;5.406;2023-11-21T03:59:35;101284.47;;;14.03;65.29
79221;BME280;72175;52.118;5.406;2023-11-21T04:02:02;101288.09;;;14.02;65.12
79221;BME280;72175;52.118;5.406;2023-11-21T04:04:29;101296.78;;;14.04;65.15
79221;BME280;72175;52.118;5.406;2023-11-21T04:06:56;101287.97;;;14.04;65.27
79221;BME280;72175;52.118;5.406;2023-11-21T04:09:23;101299.59;;;14.02;65.35
79221;BME280;72175;52.118;5.406;2023-11-21T04:11:52;101298.59;;;14.04;65.24
79221;BME280;72175;52.118;5.406;2023-11-21T04:14:19;101303.09;;;14.03;65.35
79221;BME280;72175;52.118;5.406;2023-11-21T04:16:46;101307.56;;;14.02;65.21
79221;BME280;72175;52.118;5.406;2023-11-21T04:19:13;101304.06;;;14.02;65.23
79221;BME280;72175;52.118;5.406;2023-11-21T04:21:42;101313.72;;;14.03;64.92
79221;BME280;72175;52.118;5.406;2023-11-21T04:24:09;101314.72;;;14.02;65.35
79221;BME280;72175;52.118;5.406;2023-11-21T04:26:37;101317.38;;;14.02;65.04
79221;BME280;72175;52.118;5.406;2023-11-21T04:29:04;101317.38;;;14.02;64.96
79221;BME280;72175;52.118;5.406;2023-11-21T04:31:31;101331.50;;;14.02;65.19
79221;BME280;72175;52.118;5.406;2023-11-21T04:33:58;101330.69;;;14.02;65.02
79221;BME280;72175;52.118;5.406;2023-11-21T04:36:25;101328.00;;;14.02;65.22
79221;BME280;72175;52.118;5.406;2023-11-21T04:38:52;101336.00;;;14.02;65.06
79221;BME280;72175;52.118;5.406;2023-11-21T04:41:19;101332.50;;;14.01;65.21
79221;BME280;72175;52.118;5.406;2023-11-21T04:43:46;101333.34;;;14.02;65.42
79221;BME280;72175;52.118;5.406;2023-11-21T04:46:13;101343.97;;;14.02;64.83
79221;BME280;72175;52.118;5.406;2023-11-21T04:48:40;101352.81;;;14.02;65.20
79221;BME280;72175;52.118;5.406;2023-11-21T04:51:07;101353.78;;;14.01;65.24
79221;BME280;72175;52.118;5.406;2023-11-21T04:53:34;101359.94;;;14.02;65.02
79221;BME280;72175;52.118;5.406;2023-11-21T04:56:01;101351.97;;;14.02;65.31
79221;BME280;72175;52.118;5.406;2023-11-21T04:58:28;101351.13;;;14.01;65.11
79221;BME280;72175;52.118;5.406;2023-11-21T05:00:55;101350.28;;;14.01;65.26
79221;BME280;72175;52.118;5.406;2023-11-21T05:03:21;101346.78;;;14.00;65.38
79221;BME280;72175;52.118;5.406;2023-11-21T05:05:51;101351.28;;;14.00;65.18
79221;BME280;72175;52.118;5.406;2023-11-21T05:08:17;101359.25;;;14.00;65.25
79221;BME280;72175;52.118;5.406;2023-11-21T05:10:46;101366.25;;;14.01;64.95
79221;BME280;72175;52.118;5.406;2023-11-21T05:13:14;101370.72;;;14.00;64.95
79221;BME280;72175;52.118;5.406;2023-11-21T05:15:44;101370.72;;;14.00;65.31
79221;BME280;72175;52.118;5.406;2023-11-21T05:18:11;101368.06;;;14.00;65.40
79221;BME280;72175;52.118;5.406;2023-11-21T05:20:40;101372.56;;;14.00;64.89
79221;BME280;72175;52.118;5.406;2023-11-21T05:23:07;101375.22;;;14.00;64.96
79221;BME280;72175;52.118;5.406;2023-11-21T05:25:34;101381.38;;;14.00;65.27
79221;BME280;72175;52.118;5.406;2023-11-21T05:28:05;101379.56;;;14.01;65.02
79221;BME280;72175;52.118;5.406;2023-11-21T05:30:33;101377.88;;;14.00;64.92
79221;BME280;72175;52.118;5.406;2023-11-21T05:33:00;101380.53;;;14.00;65.06
79221;BME280;72175;52.118;5.406;2023-11-21T05:35:26;101383.19;;;14.00;65.16
79221;BME280;72175;52.118;5.406;2023-11-21T05:37:53;101388.53;;;14.00;65.40
79221;BME280;72175;52.118;5.406;2023-11-21T05:40:20;101389.34;;;14.00;65.04
79221;BME280;72175;52.118;5.406;2023-11-21T05:42:49;101388.53;;;14.00;65.32
79221;BME280;72175;52.118;5.406;2023-11-21T05:45:18;101388.53;;;14.00;64.83
79221;BME280;72175;52.118;5.406;2023-11-21T05:47:48;101395.66;;;13.99;64.97
79221;BME280;72175;52.118;5.406;2023-11-21T05:50:16;101404.63;;;13.98;65.35
79221;BME280;72175;52.118;5.406;2023-11-21T05:52:45;101408.97;;;13.99;65.31
79221;BME280;72175;52.118;5.406;2023-11-21T05:55:12;101407.16;;;14.00;65.34
79221;BME280;72175;52.118;5.406;2023-11-21T05:57:41;101412.47;;;14.00;65.30
79221;BME280;72175;52.118;5.406;2023-11-21T06:00:10;101420.59;;;13.98;65.43
79221;BME280;72175;52.118;5.406;2023-11-21T06:02:39;101424.09;;;13.99;64.87
79221;BME280;72175;52.118;5.406;2023-11-21T06:05:07;101423.09;;;14.00;65.28
79221;BME280;72175;52.118;5.406;2023-11-21T06:07:34;101426.75;;;13.99;64.85
79221;BME280;72175;52.118;5.406;2023-11-21T06:10:03;101426.75;;;13.99;65.19
79221;BME280;72175;52.118;5.406;2023-11-21T06:12:34;101433.91;;;13.98;65.31
79221;BME280;72175;52.118;5.406;2023-11-21T06:15:05;101442.72;;;13.99;64.86
79221;BME280;72175;52.118;5.406;2023-11-21T06:17:35;101445.38;;;13.99;65.30
79221;BME280;72175;52.118;5.406;2023-11-21T06:20:04;101439.22;;;13.98;65.28
79221;BME280;72175;52.118;5.406;2023-11-21T06:22:37;101441.88;;;13.98;64.84
79221;BME280;72175;52.118;5.406;2023-11-21T06:25:05;101447.19;;;13.98;65.02
79221;BME280;72175;52.118;5.406;2023-11-21T06:27:32;101450.84;;;13.97;65.22
79221;BME280;72175;52.118;5.406;2023-11-21T06:29:59;101448.88;;;13.99;65.31
79221;BME280;72175;52.118;5.406;2023-11-21T06:32:26;101452.53;;;13.98;64.94
79221;BME280;72175;52.118;5.406;2023-11-21T06:34:53;101454.34;;;13.98;65.07
79221;BME280;72175;52.118;5.406;2023-11-21T06:37:20;101452.66;;;13.97;65.07
79221;BME280;72175;52.118;5.406;2023-11-21T06:39:49;101459.66;;;13.98;65.16
79221;BME280;72175;52.118;5.406;2023-11-21T06:42:20;101454.34;;;13.98;64.91
79221;BME280;72175;52.118;5.406;2023-11-21T06:44:47;101464.97;;;13.98;65.16
79221;BME280;72175;52.118;5.406;2023-11-21T06:47:14;101459.81;;;13.96;65.26
79221;BME280;72175;52.118;5.406;2023-11-21T06:49:42;101467.66;;;13.98;65.25
79221;BME280;72175;52.118;5.406;2023-11-21T06:52:09;101468.63;;;13.97;65.23
79221;BME280;72175;52.118;5.406;2023-11-21T06:54:36;101472.97;;;13.98;65.06
79221;BME280;72175;52.118;5.406;2023-11-21T06:57:03;101469.47;;;13.97;65.15
79221;BME280;72175;52.118;5.406;2023-11-21T06:59:30;101472.97;;;13.98;65.31
79221;BME280;72175;52.118;5.406;2023-11-21T07:01:57;101479.28;;;13.97;65.07
79221;BME280;72175;52.118;5.406;2023-11-21T07:04:24;101480.09;;;13.97;64.92
79221;BME280;72175;52.118;5.406;2023-11-21T07:06:53;101489.91;;;13.97;64.98
79221;BME280;72175;52.118;5.406;2023-11-21T07:09:20;101493.41;;;13.97;64.98
79221;BME280;72175;52.118;5.406;2023-11-21T07:11:52;101489.06;;;13.96;65.21
79221;BME280;72175;52.118;5.406;2023-11-21T07:14:19;101502.22;;;13.98;65.15
79221;BME280;72175;52.118;5.406;2023-11-21T07:16:46;101498.72;;;13.97;65.08
79221;BME280;72175;52.118;5.406;2023-11-21T07:19:13;101508.41;;;13.98;65.28
79221;BME280;72175;52.118;5.406;2023-11-21T07:21:41;101509.09;;;14.00;65.22
79221;BME280;72175;52.118;5.406;2023-11-21T07:24:09;101515.25;;;14.01;65.05
79221;BME280;72175;52.118;5.406;2023-11-21T07:26:38;101520.28;;;14.04;65.34
79221;BME280;72175;52.118;5.406;2023-11-21T07:29:06;101523.66;;;14.06;65.30
79221;BME280;72175;52.118;5.406;2023-11-21T07:31:32;101527.00;;;14.08;65.18
79221;BME280;72175;52.118;5.406;2023-11-21T07:34:03;101526.88;;;14.10;65.08
79221;BME280;72175;52.118;5.406;2023-11-21T07:36:29;101525.91;;;14.11;65.25
79221;BME280;72175;52.118;5.406;2023-11-21T07:38:56;101521.41;;;14.11;65.16
79221;BME280;72175;52.118;5.406;2023-11-21T07:41:22;101530.06;;;14.13;65.14
79221;BME280;72175;52.118;5.406;2023-11-21T07:43:57;101529.09;;;14.14;65.16
79221;BME280;72175;52.118;5.406;2023-11-21T07:46:26;101537.91;;;14.15;65.39
79221;BME280;72175;52.118;5.406;2023-11-21T07:48:53;101544.06;;;14.15;65.17
79221;BME280;72175;52.118;5.406;2023-11-21T07:51:22;101546.59;;;14.17;65.29
79221;BME280;72175;52.118;5.406;2023-11-21T07:53:49;101542.09;;;14.17;65.30
79221;BME280;72175;52.118;5.406;2023-11-21T07:56:16;101551.78;;;14.18;65.17
79221;BME280;72175;52.118;5.406;2023-11-21T07:58:42;101555.28;;;14.19;64.99
79221;BME280;72175;52.118;5.406;2023-11-21T08:01:09;101556.94;;;14.20;65.04
79221;BME280;72175;52.118;5.406;2023-11-21T08:03:36;101562.13;;;14.21;65.15
79221;BME280;72175;52.118;5.406;2023-11-21T08:06:03;101562.97;;;14.22;65.06
79221;BME280;72175;52.118;5.406;2023-11-21T08:08:32;101577.97;;;14.23;64.94
79221;BME280;72175;52.118;5.406;2023-11-21T08:10:59;101581.47;;;14.23;64.95
79221;BME280;72175;52.118;5.406;2023-11-21T08:13:29;101581.31;;;14.25;65.26
79221;BME280;72175;52.118;5.406;2023-11-21T08:15:59;101593.78;;;14.24;65.53
79221;BME280;72175;52.118;5.406;2023-11-21T08:18:29;101598.97;;;14.26;65.31
79221;BME280;72175;52.118;5.406;2023-11-21T08:20:58;101607.81;;;14.26;64.94
79221;BME280;72175;52.118;5.406;2023-11-21T08:23:25;101607.81;;;14.26;65.33
79221;BME280;72175;52.118;5.406;2023-11-21T08:25:53;101615.66;;;14.28;65.31
79221;BME280;72175;52.118;5.406;2023-11-21T08:28:20;101621.81;;;14.28;65.16
79221;BME280;72175;52.118;5.406;2023-11-21T08:30:50;101620.81;;;14.29;65.45
79221;BME280;72175;52.118;5.406;2023-11-21T08:33:18;101623.47;;;14.29;65.17
79221;BME280;72175;52.118;5.406;2023-11-21T08:35:48;101632.16;;;14.31;65.41
79221;BME280;72175;52.118;5.406;2023-11-21T08:38:15;101632.16;;;14.31;65.28
79221;BME280;72175;52.118;5.406;2023-11-21T08:40:42;101641.97;;;14.31;65.07
79221;BME280;72175;52.118;5.406;2023-11-21T08:43:08;101652.47;;;14.32;65.08
79221;BME280;72175;52.118;5.406;2023-11-21T08:45:35;101652.47;;;14.32;65.39
79221;BME280;72175;52.118;5.406;2023-11-21T08:48:02;101655.00;;;14.34;65.64
79221;BME280;72175;52.118;5.406;2023-11-21T08:50:29;101657.66;;;14.34;65.65
79221;BME280;72175;52.118;5.406;2023-11-21T08:52:55;101655.69;;;14.36;65.29
79221;BME280;72175;52.118;5.406;2023-11-21T08:55:25;101658.34;;;14.36;65.12
79221;BME280;72175;52.118;5.406;2023-11-21T08:57:53;101662.84;;;14.35;65.17
79221;BME280;72175;52.118;5.406;2023-11-21T09:00:20;101668.03;;;14.37;65.26
79221;BME280;72175;52.118;5.406;2023-11-21T09:02:47;101663.53;;;14.38;65.43
79221;BME280;72175;52.118;5.406;2023-11-21T09:05:14;101658.22;;;14.38;64.98
79221;BME280;72175;52.118;5.406;2023-11-21T09:07:41;101667.03;;;14.38;64.88
79221;BME280;72175;52.118;5.406;2023-11-21T09:10:08;101667.03;;;14.38;65.34
79221;BME280;72175;52.118;5.406;2023-11-21T09:12:37;101682.19;;;14.38;65.18
79221;BME280;72175;52.118;5.406;2023-11-21T09:15:05;101684.84;;;14.38;65.28
79221;BME280;72175;52.118;5.406;2023-11-21T09:17:34;101699.84;;;14.39;65.24
79221;BME280;72175;52.118;5.406;2023-11-21T09:20:02;101702.50;;;14.39;65.01
79221;BME280;72175;52.118;5.406;2023-11-21T09:22:30;101702.50;;;14.39;65.32
79221;BME280;72175;52.118;5.406;2023-11-21T09:24:58;101700.56;;;14.41;65.12
79221;BME280;72175;52.118;5.406;2023-11-21T09:27:24;101698.84;;;14.40;65.13
79221;BME280;72175;52.118;5.406;2023-11-21T09:29:52;101697.91;;;14.41;65.07
79221;BME280;72175;52.118;5.406;2023-11-21T09:32:20;101712.06;;;14.41;65.29
79221;BME280;72175;52.118;5.406;2023-11-21T09:34:48;101713.75;;;14.42;64.98
79221;BME280;72175;52.118;5.406;2023-11-21T09:37:16;101718.94;;;14.44;65.21
79221;BME280;72175;52.118;5.406;2023-11-21T09:39:43;101728.59;;;14.45;65.40
79221;BME280;72175;52.118;5.406;2023-11-21T09:42:17;101735.59;;;14.46;64.96
79221;BME280;72175;52.118;5.406;2023-11-21T09:44:54;101747.06;;;14.46;65.08
79221;BME280;72175;52.118;5.406;2023-11-21T09:47:26;101748.75;;;14.47;65.04
79221;BME280;72175;52.118;5.406;2023-11-21T09:49:54;101755.06;;;14.46;65.30
79221;BME280;72175;52.118;5.406;2023-11-21T09:52:24;101756.88;;;14.46;64.90
79221;BME280;72175;52.118;5.406;2023-11-21T09:54:53;101763.91;;;14.47;65.00
79221;BME280;72175;52.118;5.406;2023-11-21T09:57:21;101760.38;;;14.46;65.25
79221;BME280;72175;52.118;5.406;2023-11-21T09:59:51;101766.56;;;14.47;64.98
79221;BME280;72175;52.118;5.406;2023-11-21T10:02:28;101765.56;;;14.48;64.88
79221;BME280;72175;52.118;5.406;2023-11-21T10:04:58;101768.25;;;14.48;65.51
79221;BME280;72175;52.118;5.406;2023-11-21T10:07:28;101774.41;;;14.48;65.40
79221;BME280;72175;52.118;5.406;2023-11-21T10:10:01;101774.41;;;14.48;65.30
79221;BME280;72175;52.118;5.406;2023-11-21T10:12:28;101770.91;;;14.48;65.45
79221;BME280;72175;52.118;5.406;2023-11-21T10:14:57;101771.75;;;14.48;65.15
79221;BME280;72175;52.118;5.406;2023-11-21T10:17:27;101782.41;;;14.48;65.02
79221;BME280;72175;52.118;5.406;2023-11-21T10:19:57;101789.53;;;14.48;65.19
79221;BME280;72175;52.118;5.406;2023-11-21T10:22:24;101794.88;;;14.48;64.99
79221;BME280;72175;52.118;5.406;2023-11-21T10:24:53;101805.38;;;14.49;64.94
79221;BME280;72175;52.118;5.406;2023-11-21T10:27:20;101806.22;;;14.50;65.06
79221;BME280;72175;52.118;5.406;2023-11-21T10:29:46;101803.56;;;14.50;64.86
79221;BME280;72175;52.118;5.406;2023-11-21T10:32:14;101808.06;;;14.49;65.17
79221;BME280;72175;52.118;5.406;2023-11-21T10:34:41;101804.53;;;14.49;65.02
79221;BME280;72175;52.118;5.406;2023-11-21T10:37:12;101809.88;;;14.49;65.36
79221;BME280;72175;52.118;5.406;2023-11-21T10:39:39;101811.56;;;14.50;65.39
79221;BME280;72175;52.118;5.406;2023-11-21T10:42:08;101823.06;;;14.50;65.25
79221;BME280;72175;52.118;5.406;2023-11-21T10:44:37;101830.19;;;14.50;65.19
79221;BME280;72175;52.118;5.406;2023-11-21T10:47:04;101837.22;;;14.51;65.14
79221;BME280;72175;52.118;5.406;2023-11-21T10:49:31;101839.03;;;14.50;65.35
79221;BME280;72175;52.118;5.406;2023-11-21T10:51:59;101847.84;;;14.51;65.21
79221;BME280;72175;52.118;5.406;2023-11-21T10:54:26;101854.88;;;14.52;65.52
79221;BME280;72175;52.118;5.406;2023-11-21T10:56:56;101858.38;;;14.52;65.30
79221;BME280;72175;52.118;5.406;2023-11-21T10:59:25;101862.88;;;14.52;65.33
79221;BME280;72175;52.118;5.406;2023-11-21T11:01:57;101864.53;;;14.53;64.90
79221;BME280;72175;52.118;5.406;2023-11-21T11:04:27;101864.53;;;14.53;65.53
79221;BME280;72175;52.118;5.406;2023-11-21T11:06:57;101867.22;;;14.53;65.36
79221;BME280;72175;52.118;5.406;2023-11-21T11:09:32;101868.91;;;14.54;65.56
79221;BME280;72175;52.118;5.406;2023-11-21T11:12:02;101867.91;;;14.55;65.53
79221;BME280;72175;52.118;5.406;2023-11-21T11:14:31;101863.44;;;14.55;65.46
79221;BME280;72175;52.118;5.406;2023-11-21T11:17:01;101864.28;;;14.56;65.37
79221;BME280;72175;52.118;5.406;2023-11-21T11:19:29;101870.72;;;14.53;65.74
79221;BME280;72175;52.118;5.406;2023-11-21T11:22:21;101860.91;;;14.54;65.64
79221;BME280;72175;52.118;5.406;2023-11-21T11:25:27;101874.94;;;14.56;65.31
79221;BME280;72175;52.118;5.406;2023-11-21T11:28:18;101877.59;;;14.56;65.39
79221;BME280;72175;52.118;5.406;2023-11-21T11:31:04;101877.59;;;14.56;65.73
79221;BME280;72175;52.118;5.406;2023-11-21T11:33:42;101880.25;;;14.56;65.25
79221;BME280;72175;52.118;5.406;2023-11-21T11:36:41;101882.91;;;14.56;65.20
79221;BME280;72175;52.118;5.406;2023-11-21T11:39:36;101887.28;;;14.57;65.27
79221;BME280;72175;52.118;5.406;2023-11-21T11:42:07;101883.75;;;14.56;65.36
79221;BME280;72175;52.118;5.406;2023-11-21T11:44:48;101892.59;;;14.57;65.66
79221;BME280;72175;52.118;5.406;2023-11-21T11:47:26;101893.56;;;14.56;65.37
79221;BME280;72175;52.118;5.406;2023-11-21T11:50:12;101897.09;;;14.56;65.31
79221;BME280;72175;52.118;5.406;2023-11-21T11:52:48;101898.91;;;14.56;65.14
79221;BME280;72175;52.118;5.406;2023-11-21T11:55:18;101906.06;;;14.55;65.16
79221;BME280;72175;52.118;5.406;2023-11-21T11:57:47;101907.72;;;14.56;64.98
79221;BME280;72175;52.118;5.406;2023-11-21T12:00:36;101911.38;;;14.55;65.19
79221;BME280;72175;52.118;5.406;2023-11-21T12:03:06;101909.56;;;14.56;65.24
79221;BME280;72175;52.118;5.406;2023-11-21T12:05:35;101910.41;;;14.56;65.25
79221;BME280;72175;52.118;5.406;2023-11-21T12:08:11;101922.75;;;14.57;65.22
79221;BME280;72175;52.118;5.406;2023-11-21T12:10:39;101925.41;;;14.57;65.19
79221;BME280;72175;52.118;5.406;2023-11-21T12:13:08;101921.75;;;14.58;65.28
79221;BME280;72175;52.118;5.406;2023-11-21T12:15:35;101931.31;;;14.61;64.95
79221;BME280;72175;52.118;5.406;2023-11-21T12:18:03;101932.28;;;14.60;65.65
79221;BME280;72175;52.118;5.406;2023-11-21T12:20:30;101936.63;;;14.61;65.31
79221;BME280;72175;52.118;5.406;2023-11-21T12:22:59;101943.78;;;14.60;65.05
79221;BME280;72175;52.118;5.406;2023-11-21T12:25:28;101937.44;;;14.61;65.28
79221;BME280;72175;52.118;5.406;2023-11-21T12:27:59;101936.63;;;14.61;65.33
79221;BME280;72175;52.118;5.406;2023-11-21T12:30:29;101941.13;;;14.60;65.34
79221;BME280;72175;52.118;5.406;2023-11-21T12:32:59;101933.97;;;14.61;65.19
79221;BME280;72175;52.118;5.406;2023-11-21T12:35:28;101939.28;;;14.61;65.22
79221;BME280;72175;52.118;5.406;2023-11-21T12:37:56;101934.78;;;14.61;65.21
79221;BME280;72175;52.118;5.406;2023-11-21T12:40:26;101941.13;;;14.60;65.24
79221;BME280;72175;52.118;5.406;2023-11-21T12:42:57;101943.78;;;14.60;65.08
79221;BME280;72175;52.118;5.406;2023-11-21T12:45:26;101948.09;;;14.61;65.34
79221;BME280;72175;52.118;5.406;2023-11-21T12:50:24;101956.09;;;14.61;65.17
79221;BME280;72175;52.118;5.406;2023-11-21T12:53:00;101962.41;;;14.60;65.13
79221;BME280;72175;52.118;5.406;2023-11-21T12:55:33;101961.41;;;14.61;65.33
79221;BME280;72175;52.118;5.406;2023-11-21T12:58:08;101967.59;;;14.62;65.11
79221;BME280;72175;52.118;5.406;2023-11-21T13:00:40;101974.72;;;14.61;64.97
79221;BME280;72175;52.118;5.406;2023-11-21T13:03:10;101970.25;;;14.62;65.02
79221;BME280;72175;52.118;5.406;2023-11-21T13:05:40;101970.25;;;14.62;65.26
79221;BME280;72175;52.118;5.406;2023-11-21T13:08:14;101977.25;;;14.63;65.58
79221;BME280;72175;52.118;5.406;2023-11-21T13:10:49;101979.94;;;14.63;65.00